createdAt,value
2023-02-16T00:01:20.454Z,14.37
2023-02-16T00:03:50.348Z,13.17
2023-02-16T00:06:20.032Z,13.47
2023-02-16T00:08:51.349Z,15.00
2023-02-16T00:11:42.994Z,14.80
2023-02-16T00:14:14.073Z,13.87
2023-02-16T00:16:43.642Z,14.23
2023-02-16T00:19:18.763Z,14.20
2023-02-16T00:21:48.435Z,14.57
2023-02-16T00:24:17.849Z,13.67
2023-02-16T00:26:49.051Z,13.63
2023-02-16T00:29:23.794Z,13.30
2023-02-16T00:31:53.438Z,13.93
2023-02-16T00:34:30.989Z,13.23
2023-02-16T00:37:03.585Z,13.17
2023-02-16T00:39:33.167Z,14.00
2023-02-16T00:42:06.414Z,14.13
2023-02-16T00:44:41.298Z,14.13
2023-02-16T00:47:19.830Z,14.13
2023-02-16T00:49:50.295Z,15.50
2023-02-16T00:52:32.029Z,14.27
2023-02-16T00:55:02.397Z,15.53
2023-02-16T00:57:36.679Z,13.33
2023-02-16T01:00:13.899Z,13.23
2023-02-16T01:02:43.605Z,14.43
2023-02-16T01:05:13.070Z,14.77
2023-02-16T01:07:59.812Z,15.53
2023-02-16T01:10:48.025Z,14.83
2023-02-16T01:13:19.187Z,15.17
2023-02-16T01:15:48.393Z,15.63
2023-02-16T01:18:20.105Z,14.70
2023-02-16T01:20:49.657Z,15.93
2023-02-16T01:23:18.764Z,14.27
2023-02-16T01:25:48.018Z,16.10
2023-02-16T01:28:23.104Z,15.37
2023-02-16T01:30:54.037Z,16.37
2023-02-16T01:33:23.293Z,15.73
2023-02-16T01:35:54.572Z,16.33
2023-02-16T01:38:25.897Z,17.47
2023-02-16T01:41:06.352Z,15.40
2023-02-16T01:43:45.536Z,16.03
2023-02-16T01:46:21.241Z,16.07
2023-02-16T01:48:50.374Z,16.80
2023-02-16T01:51:24.903Z,17.10
2023-02-16T01:53:59.658Z,17.07
2023-02-16T01:56:33.822Z,17.37
2023-02-16T01:59:14.039Z,17.93
2023-02-16T02:01:50.244Z,18.20
2023-02-16T02:04:51.980Z,18.23
2023-02-16T02:07:27.820Z,17.90
2023-02-16T02:10:07.148Z,17.03
2023-02-16T02:12:45.663Z,18.47
2023-02-16T02:15:20.971Z,19.37
2023-02-16T02:17:50.126Z,17.40
2023-02-16T02:20:49.692Z,20.30
2023-02-16T02:23:43.094Z,18.10
2023-02-16T02:26:45.174Z,18.80
2023-02-16T02:29:59.079Z,18.83
2023-02-16T02:32:42.910Z,19.60
2023-02-16T02:35:23.044Z,18.80
2023-02-16T02:38:02.997Z,19.50
2023-02-16T02:40:42.824Z,18.87
2023-02-16T02:43:18.509Z,20.57
2023-02-16T02:45:52.052Z,20.37
2023-02-16T02:48:22.691Z,19.13
2023-02-16T02:51:12.683Z,21.53
2023-02-16T02:53:45.847Z,19.97
2023-02-16T02:56:35.968Z,21.33
2023-02-16T02:59:26.704Z,22.00
2023-02-16T03:02:00.539Z,22.07
2023-02-16T03:04:34.297Z,22.03
2023-02-16T03:07:06.162Z,22.53
2023-02-16T03:09:35.247Z,23.70
2023-02-16T03:12:24.322Z,21.83
2023-02-16T03:14:57.741Z,23.20
2023-02-16T03:17:50.601Z,21.53
2023-02-16T03:20:39.414Z,21.33
2023-02-16T03:23:27.187Z,22.23
2023-02-16T03:26:14.253Z,21.37
2023-02-16T03:29:03.880Z,21.57
2023-02-16T03:31:35.925Z,21.63
2023-02-16T03:34:05.766Z,23.03
2023-02-16T03:36:39.155Z,22.73
2023-02-16T03:39:09.473Z,22.63
2023-02-16T03:41:41.738Z,22.10
2023-02-16T03:44:10.934Z,22.83
2023-02-16T03:46:40.036Z,24.47
2023-02-16T03:49:09.111Z,23.90
2023-02-16T03:51:39.562Z,24.53
2023-02-16T03:54:09.049Z,24.23
2023-02-16T03:56:38.098Z,23.20
2023-02-16T03:59:07.150Z,23.90
2023-02-16T04:01:36.225Z,25.00
2023-02-16T04:04:05.433Z,25.60
2023-02-16T04:06:34.521Z,26.87
2023-02-16T04:09:05.000Z,26.03
2023-02-16T04:11:51.393Z,23.83
2023-02-16T04:14:20.416Z,24.60
2023-02-16T04:16:49.572Z,26.03
2023-02-16T04:19:18.684Z,24.40
2023-02-16T04:21:47.939Z,25.07
2023-02-16T04:24:18.338Z,24.77
2023-02-16T04:26:49.399Z,24.83
2023-02-16T04:29:18.689Z,24.30
2023-02-16T04:31:47.876Z,23.20
2023-02-16T04:34:17.130Z,24.23
2023-02-16T04:36:46.189Z,23.13
2023-02-16T04:39:15.357Z,22.60
2023-02-16T04:41:45.814Z,23.37
2023-02-16T04:44:14.883Z,22.13
2023-02-16T04:46:43.980Z,24.77
2023-02-16T04:49:12.999Z,23.87
2023-02-16T04:51:42.009Z,24.60
2023-02-16T04:54:11.127Z,22.17
2023-02-16T04:56:40.221Z,21.60
2023-02-16T04:59:10.617Z,20.47
2023-02-16T05:01:39.760Z,23.70
2023-02-16T05:04:10.050Z,20.07
2023-02-16T05:06:39.609Z,21.50
2023-02-16T05:09:08.823Z,19.67
2023-02-16T05:11:55.314Z,17.63
2023-02-16T05:14:44.529Z,21.20
2023-02-16T05:17:16.257Z,20.33
2023-02-16T05:19:47.192Z,22.20
2023-02-16T05:22:16.813Z,21.07
2023-02-16T05:24:46.279Z,23.00
2023-02-16T05:27:20.572Z,21.07
2023-02-16T05:29:51.347Z,23.20
2023-02-16T05:32:21.210Z,21.93
2023-02-16T05:34:51.267Z,24.17
2023-02-16T05:37:20.711Z,23.77
2023-02-16T05:39:49.827Z,20.80
2023-02-16T05:42:18.873Z,23.07
2023-02-16T05:44:48.309Z,21.63
2023-02-16T05:47:18.815Z,22.50
2023-02-16T05:49:47.923Z,22.53
2023-02-16T05:52:17.003Z,23.27
2023-02-16T05:54:46.096Z,22.13
2023-02-16T05:57:15.320Z,22.63
2023-02-16T05:59:44.403Z,22.53
2023-02-16T06:02:13.505Z,20.90
2023-02-16T06:04:44.013Z,22.03
2023-02-16T06:07:14.818Z,20.17
2023-02-16T06:09:44.103Z,21.33
2023-02-16T06:12:13.260Z,20.97
2023-02-16T06:14:42.355Z,21.90
2023-02-16T06:17:11.443Z,22.03
2023-02-16T06:19:40.507Z,22.80
2023-02-16T06:22:10.995Z,22.23
2023-02-16T06:24:40.105Z,22.47
2023-02-16T06:27:09.342Z,22.33
2023-02-16T06:29:38.430Z,21.27
2023-02-16T06:32:07.745Z,22.37
2023-02-16T06:34:36.887Z,21.20
2023-02-16T06:37:06.031Z,22.40
2023-02-16T06:39:36.453Z,22.87
2023-02-16T06:42:05.988Z,22.30
2023-02-16T06:44:35.009Z,21.83
2023-02-16T06:47:04.020Z,22.67
2023-02-16T06:49:33.137Z,20.37
2023-02-16T06:52:02.465Z,22.73
2023-02-16T06:54:31.663Z,21.47
2023-02-16T06:57:02.381Z,22.60
2023-02-16T06:59:31.710Z,24.13
2023-02-16T07:02:00.843Z,24.07
2023-02-16T07:04:29.982Z,23.00
2023-02-16T07:06:59.088Z,23.47
2023-02-16T07:09:28.311Z,22.07
2023-02-16T07:11:57.547Z,22.20
2023-02-16T07:14:28.033Z,23.97
2023-02-16T07:16:59.234Z,23.10
2023-02-16T07:19:30.293Z,23.53
2023-02-16T07:21:59.483Z,25.07
2023-02-16T07:24:28.677Z,24.17
2023-02-16T07:26:57.986Z,24.73
2023-02-16T07:29:28.430Z,23.87
2023-02-16T07:31:58.045Z,23.93
2023-02-16T07:34:27.612Z,23.30
2023-02-16T07:36:58.004Z,23.67
2023-02-16T07:39:28.899Z,23.07
2023-02-16T07:41:57.974Z,24.33
2023-02-16T07:44:29.895Z,25.00
2023-02-16T07:46:59.010Z,23.53
2023-02-16T07:49:28.099Z,23.20
2023-02-16T07:51:57.168Z,24.27
2023-02-16T07:54:26.262Z,25.37
2023-02-16T07:56:55.328Z,25.20
2023-02-16T07:59:24.505Z,25.53
2023-02-16T08:01:55.087Z,22.33
2023-02-16T08:04:24.265Z,22.57
2023-02-16T08:06:53.406Z,23.87
2023-02-16T08:09:22.518Z,26.10
2023-02-16T08:11:51.657Z,24.87
2023-02-16T08:14:20.723Z,23.63
2023-02-16T08:16:53.606Z,23.50
2023-02-16T08:19:25.665Z,25.93
2023-02-16T08:21:54.712Z,26.67
2023-02-16T08:24:24.893Z,21.57
2023-02-16T08:26:55.741Z,24.10
2023-02-16T08:29:25.311Z,23.30
2023-02-16T08:31:55.501Z,24.13
2023-02-16T08:34:27.341Z,23.63
2023-02-16T08:36:58.668Z,22.43
2023-02-16T08:39:31.266Z,26.53
2023-02-16T08:42:02.093Z,25.43
2023-02-16T08:44:31.406Z,21.33
2023-02-16T08:47:01.693Z,25.00
2023-02-16T08:49:32.955Z,24.50
2023-02-16T08:52:01.990Z,25.60
2023-02-16T08:54:33.294Z,23.90
2023-02-16T08:57:04.013Z,23.53
2023-02-16T08:59:34.448Z,23.63
2023-02-16T09:02:04.158Z,23.80
2023-02-16T09:04:34.762Z,24.57
2023-02-16T09:07:04.332Z,24.87
2023-02-16T09:09:33.487Z,26.90
2023-02-16T09:12:02.547Z,23.90
2023-02-16T09:14:31.604Z,24.33
2023-02-16T09:17:00.728Z,25.10
2023-02-16T09:19:29.857Z,25.37
2023-02-16T09:22:00.554Z,24.47
2023-02-16T09:24:29.756Z,25.83
2023-02-16T09:26:58.820Z,24.03
2023-02-16T09:29:27.959Z,25.00
2023-02-16T09:31:57.049Z,22.80
2023-02-16T09:34:27.934Z,23.70
2023-02-16T09:36:58.301Z,23.07
2023-02-16T09:39:29.533Z,24.17
2023-02-16T09:42:16.616Z,24.40
2023-02-16T09:44:53.576Z,20.73
2023-02-16T09:47:29.244Z,18.97
2023-02-16T09:50:00.315Z,24.17
2023-02-16T09:52:36.926Z,22.93
2023-02-16T09:55:12.754Z,22.33
2023-02-16T09:58:08.017Z,25.40
2023-02-16T10:00:49.409Z,22.30
2023-02-16T10:03:34.998Z,23.27
2023-02-16T10:06:17.453Z,23.37
2023-02-16T10:08:50.163Z,21.43
2023-02-16T10:11:40.642Z,23.63
2023-02-16T10:14:25.983Z,22.97
2023-02-16T10:17:02.740Z,23.20
2023-02-16T10:19:39.588Z,23.07
2023-02-16T10:22:17.344Z,22.33
2023-02-16T10:25:00.998Z,21.33
2023-02-16T10:27:42.936Z,18.53
2023-02-16T10:30:16.917Z,19.67
2023-02-16T10:32:56.363Z,21.00
2023-02-16T10:35:38.056Z,20.80
2023-02-16T10:38:15.812Z,20.30
2023-02-16T10:40:53.893Z,19.60
2023-02-16T10:43:35.106Z,20.23
2023-02-16T10:46:05.058Z,20.40
2023-02-16T10:48:34.993Z,21.17
2023-02-16T10:51:07.718Z,19.40
2023-02-16T10:53:43.778Z,20.07
2023-02-16T10:56:49.576Z,21.77
2023-02-16T10:59:22.636Z,15.60
2023-02-16T11:01:54.026Z,19.87
2023-02-16T11:04:40.571Z,19.80
2023-02-16T11:07:12.594Z,20.60
2023-02-16T11:09:44.646Z,21.13
2023-02-16T11:12:30.167Z,20.37
2023-02-16T11:15:06.036Z,19.40
2023-02-16T11:17:50.747Z,22.43
2023-02-16T11:20:30.051Z,19.07
2023-02-16T11:23:16.623Z,19.67
2023-02-16T11:25:58.010Z,20.87
2023-02-16T11:28:33.253Z,20.87
2023-02-16T11:31:14.913Z,21.20
2023-02-16T11:33:55.378Z,19.37
2023-02-16T11:36:33.187Z,20.43
2023-02-16T11:39:06.862Z,19.90
2023-02-16T11:41:36.730Z,19.33
2023-02-16T11:44:06.190Z,18.83
2023-02-16T11:46:43.096Z,19.10
2023-02-16T11:49:32.325Z,19.53
2023-02-16T11:52:03.206Z,19.57
2023-02-16T11:54:32.594Z,19.20
2023-02-16T11:57:09.590Z,19.53
2023-02-16T11:59:41.426Z,20.67
2023-02-16T12:02:48.494Z,20.10
2023-02-16T12:05:28.610Z,19.60
2023-02-16T12:08:19.352Z,20.07
2023-02-16T12:11:07.377Z,20.27
2023-02-16T12:13:44.822Z,20.17
2023-02-16T12:16:28.212Z,20.10
2023-02-16T12:19:12.497Z,18.43
2023-02-16T12:21:46.247Z,19.40
2023-02-16T12:24:30.817Z,19.03
2023-02-16T12:27:02.563Z,20.90
2023-02-16T12:29:45.430Z,19.53
2023-02-16T12:32:30.185Z,20.77
2023-02-16T12:35:17.007Z,20.73
2023-02-16T12:37:53.961Z,20.70
2023-02-16T12:40:34.226Z,20.77
2023-02-16T12:43:16.463Z,20.97
2023-02-16T12:45:48.067Z,19.60
2023-02-16T12:48:32.819Z,22.47
2023-02-16T12:51:07.330Z,19.93
2023-02-16T12:53:43.838Z,22.10
2023-02-16T12:56:19.198Z,22.30
2023-02-16T12:58:55.346Z,23.13
2023-02-16T13:01:27.023Z,24.13
2023-02-16T13:04:00.907Z,21.83
2023-02-16T13:06:37.398Z,24.93
2023-02-16T13:09:18.901Z,21.80
2023-02-16T13:11:51.938Z,23.10
2023-02-16T13:14:26.154Z,25.23
2023-02-16T13:16:57.962Z,25.33
2023-02-16T13:19:27.241Z,23.13
2023-02-16T13:22:25.084Z,26.00
2023-02-16T13:25:05.256Z,24.50
2023-02-16T13:27:45.471Z,23.90
2023-02-16T13:30:40.164Z,22.97
2023-02-16T13:33:30.487Z,22.77
2023-02-16T13:36:33.938Z,22.70
2023-02-16T13:39:26.914Z,23.20
2023-02-16T13:42:25.799Z,23.20
2023-02-16T13:44:58.802Z,23.87
2023-02-16T13:47:32.004Z,24.70
2023-02-16T13:50:03.671Z,23.60
2023-02-16T13:52:37.058Z,23.90
2023-02-16T13:55:23.092Z,22.77
2023-02-16T13:58:05.777Z,25.13
2023-02-16T14:00:38.246Z,25.13
2023-02-16T14:03:13.232Z,24.73
2023-02-16T14:05:44.579Z,23.80
2023-02-16T14:08:17.802Z,23.93
2023-02-16T14:11:10.657Z,25.07
2023-02-16T14:13:48.861Z,21.53
2023-02-16T14:16:33.592Z,23.50
2023-02-16T14:19:06.321Z,24.20
2023-02-16T14:21:41.625Z,23.07
2023-02-16T14:24:14.811Z,23.53
2023-02-16T14:26:59.885Z,24.53
2023-02-16T14:29:32.537Z,24.73
2023-02-16T14:32:05.915Z,25.30
2023-02-16T14:34:41.952Z,24.37
2023-02-16T14:37:34.978Z,24.03
2023-02-16T14:40:23.621Z,25.60
2023-02-16T14:43:04.835Z,25.93
2023-02-16T14:45:59.761Z,23.70
2023-02-16T14:49:19.322Z,23.40
2023-02-16T14:52:39.466Z,24.27
2023-02-16T14:55:36.250Z,24.50
2023-02-16T14:58:21.219Z,24.10
2023-02-16T15:00:54.179Z,24.27
2023-02-16T15:03:25.095Z,24.10
2023-02-16T15:05:58.452Z,24.90
2023-02-16T15:08:35.048Z,24.27
2023-02-16T15:11:15.653Z,23.17
2023-02-16T15:13:46.925Z,24.57
2023-02-16T15:16:18.625Z,27.33
2023-02-16T15:18:51.994Z,25.43
2023-02-16T15:21:24.083Z,24.63
2023-02-16T15:23:56.129Z,26.37
2023-02-16T15:26:27.225Z,24.53
2023-02-16T15:29:00.183Z,25.23
2023-02-16T15:31:33.851Z,22.33
2023-02-16T15:34:05.628Z,26.10
2023-02-16T15:36:37.405Z,26.00
2023-02-16T15:39:08.377Z,24.00
2023-02-16T15:41:40.100Z,24.80
2023-02-16T15:44:28.854Z,24.20
2023-02-16T15:47:08.083Z,23.53
2023-02-16T15:49:38.816Z,24.13
2023-02-16T15:52:12.865Z,24.43
2023-02-16T15:54:43.532Z,23.73
2023-02-16T15:57:22.706Z,24.97
2023-02-16T15:59:58.377Z,22.17
2023-02-16T16:02:34.014Z,24.27
2023-02-16T16:05:06.150Z,23.47
2023-02-16T16:07:37.299Z,22.80
2023-02-16T16:10:16.000Z,21.60
2023-02-16T16:12:46.557Z,22.17
2023-02-16T16:15:23.042Z,25.00
2023-02-16T16:17:54.716Z,22.30
2023-02-16T16:20:31.517Z,22.27
2023-02-16T16:23:04.445Z,24.87
2023-02-16T16:25:43.214Z,23.60
2023-02-16T16:28:15.442Z,22.40
2023-02-16T16:30:46.640Z,23.57
2023-02-16T16:33:17.030Z,23.63
2023-02-16T16:35:48.398Z,23.10
2023-02-16T16:38:25.783Z,24.13
2023-02-16T16:40:57.685Z,24.37
2023-02-16T16:43:29.975Z,22.80
2023-02-16T16:46:14.710Z,24.50
2023-02-16T16:48:47.455Z,23.13
2023-02-16T16:51:18.778Z,24.57
2023-02-16T16:53:59.906Z,23.80
2023-02-16T16:56:30.411Z,23.73
2023-02-16T16:59:00.414Z,22.77
2023-02-16T17:01:31.505Z,21.80
2023-02-16T17:04:01.292Z,22.63
2023-02-16T17:06:31.077Z,24.83
2023-02-16T17:09:00.212Z,24.73
2023-02-16T17:11:31.908Z,23.60
2023-02-16T17:14:09.121Z,22.37
2023-02-16T17:16:42.596Z,25.20
2023-02-16T17:19:13.193Z,24.83
2023-02-16T17:21:42.780Z,25.80
2023-02-16T17:24:11.870Z,23.50
2023-02-16T17:26:41.583Z,23.97
2023-02-16T17:29:10.924Z,25.20
2023-02-16T17:31:41.524Z,25.80
2023-02-16T17:34:10.631Z,24.27
2023-02-16T17:36:39.757Z,24.97
2023-02-16T17:39:08.887Z,23.77
2023-02-16T17:41:38.025Z,27.33
2023-02-16T17:44:07.228Z,19.73
2023-02-16T17:46:36.363Z,24.07
2023-02-16T17:49:07.125Z,24.50
2023-02-16T17:51:36.505Z,23.67
2023-02-16T17:54:06.552Z,24.00
2023-02-16T17:56:37.104Z,25.07
2023-02-16T17:59:06.454Z,23.47
2023-02-16T18:01:37.625Z,23.93
2023-02-16T18:04:08.219Z,23.97
2023-02-16T18:06:37.364Z,25.33
2023-02-16T18:09:07.752Z,24.57
2023-02-16T18:11:36.813Z,24.53
2023-02-16T18:14:05.851Z,25.13
2023-02-16T18:16:34.993Z,26.77
2023-02-16T18:19:04.503Z,23.30
2023-02-16T18:21:36.351Z,23.20
2023-02-16T18:24:06.512Z,22.50
2023-02-16T18:26:35.968Z,21.90
2023-02-16T18:29:05.894Z,19.93
2023-02-16T18:31:35.462Z,22.90
2023-02-16T18:34:05.968Z,22.97
2023-02-16T18:36:36.423Z,25.10
2023-02-16T18:39:06.348Z,24.33
2023-02-16T18:41:35.542Z,22.47
2023-02-16T18:44:04.729Z,23.83
2023-02-16T18:46:33.884Z,23.13
2023-02-16T18:49:03.014Z,22.37
2023-02-16T18:51:33.524Z,21.47
2023-02-16T18:54:04.103Z,22.10
2023-02-16T18:56:35.387Z,23.60
2023-02-16T18:59:05.201Z,22.23
2023-02-16T19:01:35.109Z,21.87
2023-02-16T19:04:06.101Z,22.53
2023-02-16T19:06:35.493Z,21.53
2023-02-16T19:09:06.754Z,23.97
2023-02-16T19:11:35.897Z,21.60
2023-02-16T19:14:05.065Z,22.83
2023-02-16T19:16:34.108Z,22.23
2023-02-16T19:19:03.241Z,21.77
2023-02-16T19:21:32.691Z,21.20
2023-02-16T19:24:02.300Z,21.80
2023-02-16T19:26:36.278Z,22.70
2023-02-16T19:29:05.651Z,20.23
2023-02-16T19:31:35.525Z,21.23
2023-02-16T19:34:08.557Z,20.37
2023-02-16T19:36:37.919Z,19.30
2023-02-16T19:39:07.109Z,21.63
2023-02-16T19:41:40.997Z,21.33
2023-02-16T19:44:12.975Z,23.10
2023-02-16T19:46:46.187Z,21.17
2023-02-16T19:49:17.222Z,20.73
2023-02-16T19:51:47.649Z,22.67
2023-02-16T19:54:17.064Z,20.87
2023-02-16T19:56:47.570Z,20.97
2023-02-16T19:59:17.359Z,19.87
2023-02-16T20:01:47.084Z,20.00
2023-02-16T20:04:16.341Z,22.13
2023-02-16T20:06:48.829Z,21.20
2023-02-16T20:09:18.772Z,21.93
2023-02-16T20:11:49.567Z,20.60
2023-02-16T20:14:18.942Z,21.47
2023-02-16T20:16:49.551Z,21.33
2023-02-16T20:19:19.033Z,22.00
2023-02-16T20:21:48.276Z,22.17
2023-02-16T20:24:18.105Z,20.63
2023-02-16T20:26:51.929Z,23.77
2023-02-16T20:29:21.710Z,22.87
2023-02-16T20:31:53.212Z,23.13
2023-02-16T20:34:35.288Z,25.60
2023-02-16T20:37:04.482Z,24.47
2023-02-16T20:39:33.769Z,26.10
2023-02-16T20:42:04.462Z,25.13
2023-02-16T20:44:33.610Z,23.37
2023-02-16T20:47:02.738Z,24.80
2023-02-16T20:49:32.204Z,22.27
2023-02-16T20:52:02.424Z,26.17
2023-02-16T20:54:32.340Z,25.13
2023-02-16T20:57:02.786Z,24.40
2023-02-16T20:59:32.482Z,25.07
2023-02-16T21:02:04.562Z,26.30
2023-02-16T21:04:34.343Z,25.67
2023-02-16T21:07:03.997Z,24.27
2023-02-16T21:09:34.070Z,23.83
2023-02-16T21:12:05.464Z,27.13
2023-02-16T21:14:35.288Z,25.27
2023-02-16T21:17:05.335Z,24.13
2023-02-16T21:19:35.175Z,26.77
2023-02-16T21:22:04.674Z,25.07
2023-02-16T21:24:34.382Z,25.07
2023-02-16T21:27:05.122Z,23.03
2023-02-16T21:29:34.648Z,25.23
2023-02-16T21:32:04.064Z,26.40
2023-02-16T21:34:33.153Z,25.23
2023-02-16T21:37:02.505Z,26.73
2023-02-16T21:39:45.539Z,25.40
2023-02-16T21:42:16.064Z,23.33
2023-02-16T21:44:49.810Z,23.23
2023-02-16T21:47:36.460Z,21.53
2023-02-16T21:50:05.924Z,23.73
2023-02-16T21:52:34.947Z,25.03
2023-02-16T21:55:21.705Z,21.80
2023-02-16T21:57:53.025Z,23.00
2023-02-16T22:00:22.311Z,20.73
2023-02-16T22:02:51.512Z,23.07
2023-02-16T22:05:20.733Z,21.60
2023-02-16T22:07:50.120Z,20.87
2023-02-16T22:10:19.243Z,21.57
2023-02-16T22:12:48.432Z,21.57
2023-02-16T22:15:19.384Z,21.40
2023-02-16T22:17:49.393Z,21.57
2023-02-16T22:20:19.297Z,21.83
2023-02-16T22:22:48.407Z,21.30
2023-02-16T22:25:17.697Z,20.23
2023-02-16T22:27:46.723Z,20.80
2023-02-16T22:30:16.201Z,21.63
2023-02-16T22:32:46.677Z,19.03
2023-02-16T22:35:15.768Z,18.53
2023-02-16T22:37:44.925Z,19.70
2023-02-16T22:40:13.999Z,22.03
2023-02-16T22:42:43.079Z,21.13
2023-02-16T22:45:12.585Z,20.17
2023-02-16T22:47:41.655Z,20.10
2023-02-16T22:50:12.573Z,16.10
2023-02-16T22:52:41.697Z,19.40
2023-02-16T22:55:11.098Z,17.63
2023-02-16T22:57:40.657Z,13.90
2023-02-16T23:00:15.621Z,20.47
2023-02-16T23:02:44.749Z,19.03
2023-02-16T23:05:15.182Z,17.73
2023-02-16T23:07:44.264Z,19.23
2023-02-16T23:10:13.658Z,18.63
2023-02-16T23:12:42.689Z,16.90
2023-02-16T23:15:12.175Z,16.77
2023-02-16T23:17:41.198Z,16.80
2023-02-16T23:20:10.921Z,16.60
2023-02-16T23:22:41.342Z,16.93
2023-02-16T23:25:39.766Z,17.17
2023-02-16T23:28:08.841Z,12.67
2023-02-16T23:30:42.426Z,16.47
2023-02-16T23:33:11.914Z,17.27
2023-02-16T23:35:41.594Z,18.47
2023-02-16T23:38:15.390Z,16.70
2023-02-16T23:40:44.871Z,17.17
2023-02-16T23:43:13.915Z,17.23
2023-02-16T23:45:43.020Z,15.43
2023-02-16T23:48:12.085Z,15.83
2023-02-16T23:50:41.132Z,16.03
2023-02-16T23:53:11.565Z,16.07
2023-02-16T23:55:40.632Z,17.30
2023-02-16T23:58:10.072Z,17.10
